Date,TemperatureHighF,TemperatureAvgF,TemperatureLowF,DewpointHighF,DewpointAvgF,DewpointLowF,HumidityHigh,HumidityAvg,HumidityLow,PressureMaxIn,PressureMinIn,WindSpeedMaxMPH,WindSpeedAvgMPH,GustSpeedMaxMPH,PrecipitationSumIn
2013-1-1,37.2,34.0,26.6,37.0,31.6,20.5,100,91,76,29.59,29.38,23,8,29,0.00
2013-1-2,34.9,26.4,20.1,20.7,15.9,13.8,78,65,46,29.65,29.56,16,4,21,0.00
2013-1-3,42.3,28.7,19.2,25.0,18.9,14.8,84,68,46,29.80,29.59,16,1,20,0.00
2013-1-4,44.6,31.4,22.3,31.7,22.5,18.2,91,72,44,29.83,29.74,19,2,24,0.00
2013-1-5,45.1,34.9,23.5,32.8,25.4,20.2,91,70,50,29.77,29.59,15,1,19,0.00
2013-1-6,45.1,35.2,24.4,35.8,27.1,18.9,92,73,54,29.77,29.53,24,5,30,0.00
2013-1-7,45.0,31.1,21.7,26.0,21.5,17.6,88,69,44,29.83,29.59,13,2,17,0.00
2013-1-8,57.2,41.0,24.4,34.2,28.3,18.7,84,63,39,29.65,29.56,12,1,16,0.00
2013-1-9,54.1,49.9,45.3,47.6,42.7,33.1,91,77,62,29.80,29.59,18,4,23,0.00
2013-1-10,65.5,53.3,46.6,61.4,50.0,42.0,100,89,77,29.77,29.26,28,10,34,0.35
2013-1-11,66.2,59.0,54.3,60.7,51.2,45.1,95,77,49,29.38,29.23,22,6,28,0.75
2013-1-12,69.4,65.4,58.3,66.6,62.1,55.4,99,89,78,29.35,29.12,28,7,34,0.00
2013-1-13,69.1,38.6,26.6,62.0,35.8,20.1,97,90,76,29.65,29.09,30,8,36,2.13
2013-1-14,29.3,26.3,23.2,20.6,18.4,16.5,81,72,61,29.80,29.65,23,4,29,0.35
2013-1-15,31.1,27.7,23.5,27.0,22.1,19.3,89,79,66,29.68,29.44,26,12,32,0.00
2013-1-16,32.2,30.6,29.3,27.4,26.5,25.6,91,85,78,29.53,29.41,14,3,18,0.35
2013-1-17,46.9,35.1,27.7,31.0,26.5,22.3,91,72,52,29.83,29.47,30,8,36,0.00
2013-1-18,49.1,36.4,22.6,26.8,23.0,18.7,87,60,40,29.94,29.68,13,3,17,0.35
2013-1-19,57.4,46.2,34.7,31.7,26.9,21.4,61,47,37,29.68,29.47,20,7,26,0.35
2013-1-20,48.4,39.5,28.2,30.2,23.4,14.5,77,53,35,29.65,29.50,20,6,25,0.35
2013-1-21,36.9,28.7,23.2,15.6,12.3,6.6,64,50,41,29.71,29.59,26,6,32,0.35
2013-1-22,27.1,23.2,18.3,6.6,3.0,1.0,48,41,36,29.83,29.68,20,4,25,0.35
2013-1-23,48.9,32.8,19.9,28.4,16.8,3.8,79,52,40,29.74,29.50,16,2,21,0.35
2013-1-24,34.5,29.7,23.2,27.8,12.4,6.3,76,49,38,29.88,29.59,31,10,38,0.35
2013-1-25,36.1,30.5,26.4,29.4,21.4,8.4,89,70,39,29.62,29.47,17,2,22,0.35
2013-1-26,46.9,35.3,25.5,33.1,23.6,18.0,91,65,40,29.71,29.62,16,3,20,0.35
2013-1-27,50.4,40.2,30.6,44.2,34.2,20.7,96,79,65,29.68,29.50,20,6,26,0.35
2013-1-28,61.0,56.2,49.6,56.3,49.5,37.0,93,79,55,29.50,29.44,19,8,24,0.35
2013-1-29,70.7,63.9,56.1,59.4,57.0,50.2,93,79,65,29.44,28.82,42,11,51,0.35
2013-1-30,58.5,47.1,33.3,55.0,39.6,16.8,100,77,52,29.32,28.85,32,11,40,1.26
2013-1-31,44.1,34.1,22.6,29.9,20.9,12.0,91,59,44,29.68,29.32,25,8,31,0.35